sensor_id;sensor_type;location;lat;lon;timestamp;pressure;altitude;pressure_sealevel;temperature
72236;BMP280;60146;52.498;13.462;2023-10-31T00:01:15;95689.72;;;13.78
72236;BMP280;60146;52.498;13.462;2023-10-31T00:03:41;95673.06;;;13.81
72236;BMP280;60146;52.498;13.462;2023-10-31T00:06:08;95677.69;;;13.77
72236;BMP280;60146;52.498;13.462;2023-10-31T00:08:33;95702.13;;;13.78
72236;BMP280;60146;52.498;13.462;2023-10-31T00:10:58;95687.59;;;13.74
72236;BMP280;60146;52.498;13.462;2023-10-31T00:13:24;95664.94;;;13.76
72236;BMP280;60146;52.498;13.462;2023-10-31T00:15:49;95686.72;;;13.76
72236;BMP280;60146;52.498;13.462;2023-10-31T00:18:15;95686.22;;;13.81
72236;BMP280;60146;52.498;13.462;2023-10-31T00:20:40;95696.63;;;13.85
72236;BMP280;60146;52.498;13.462;2023-10-31T00:23:05;95682.84;;;13.81
72236;BMP280;60146;52.498;13.462;2023-10-31T00:25:31;95674.72;;;13.76
72236;BMP280;60146;52.498;13.462;2023-10-31T00:27:56;95677.91;;;13.71
72236;BMP280;60146;52.498;13.462;2023-10-31T00:30:21;95630.59;;;13.71
72236;BMP280;60146;52.498;13.462;2023-10-31T00:32:47;95605.84;;;13.68
72236;BMP280;60146;52.498;13.462;2023-10-31T00:35:12;95573.38;;;13.75
72236;BMP280;60146;52.498;13.462;2023-10-31T00:37:38;95562.22;;;13.71
72236;BMP280;60146;52.498;13.462;2023-10-31T00:40:08;95547.78;;;13.75
72236;BMP280;60146;52.498;13.462;2023-10-31T00:42:37;95523.69;;;13.76
72236;BMP280;60146;52.498;13.462;2023-10-31T00:45:04;95508.06;;;13.73
72236;BMP280;60146;52.498;13.462;2023-10-31T00:47:30;95483.31;;;13.83
72236;BMP280;60146;52.498;13.462;2023-10-31T00:49:55;95498.56;;;13.76
72236;BMP280;60146;52.498;13.462;2023-10-31T00:52:21;95497.97;;;13.72
72236;BMP280;60146;52.498;13.462;2023-10-31T00:54:46;95528.56;;;13.66
72236;BMP280;60146;52.498;13.462;2023-10-31T00:57:11;95539.09;;;13.66
72236;BMP280;60146;52.498;13.462;2023-10-31T00:59:37;95529.31;;;13.78
72236;BMP280;60146;52.498;13.462;2023-10-31T01:02:04;95526.88;;;13.72
72236;BMP280;60146;52.498;13.462;2023-10-31T01:04:29;95496.69;;;13.64
72236;BMP280;60146;52.498;13.462;2023-10-31T01:06:56;95477.06;;;13.56
72236;BMP280;60146;52.498;13.462;2023-10-31T01:09:22;95436.97;;;13.64
72236;BMP280;60146;52.498;13.462;2023-10-31T01:11:47;95386.50;;;13.69
72236;BMP280;60146;52.498;13.462;2023-10-31T01:14:13;95380.75;;;13.62
72236;BMP280;60146;52.498;13.462;2023-10-31T01:16:40;95358.56;;;13.63
72236;BMP280;60146;52.498;13.462;2023-10-31T01:19:08;95329.88;;;13.56
72236;BMP280;60146;52.498;13.462;2023-10-31T01:21:34;95307.69;;;13.57
72236;BMP280;60146;52.498;13.462;2023-10-31T01:23:59;95271.94;;;13.59
72236;BMP280;60146;52.498;13.462;2023-10-31T01:26:25;95259.84;;;13.62
72236;BMP280;60146;52.498;13.462;2023-10-31T01:28:51;95251.50;;;13.63
72236;BMP280;60146;52.498;13.462;2023-10-31T01:31:17;95228.28;;;13.62
72236;BMP280;60146;52.498;13.462;2023-10-31T01:33:43;95219.91;;;13.55
72236;BMP280;60146;52.498;13.462;2023-10-31T01:36:13;95202.84;;;13.59
72236;BMP280;60146;52.498;13.462;2023-10-31T01:38:39;95224.28;;;13.57
72236;BMP280;60146;52.498;13.462;2023-10-31T01:41:05;95229.13;;;13.59
72236;BMP280;60146;52.498;13.462;2023-10-31T01:43:36;95223.59;;;13.57
72236;BMP280;60146;52.498;13.462;2023-10-31T01:46:02;95201.44;;;13.67
72236;BMP280;60146;52.498;13.462;2023-10-31T01:48:31;95194.69;;;13.57
72236;BMP280;60146;52.498;13.462;2023-10-31T01:50:59;95182.69;;;13.56
72236;BMP280;60146;52.498;13.462;2023-10-31T01:53:25;95158.16;;;13.50
72236;BMP280;60146;52.498;13.462;2023-10-31T01:55:52;95142.09;;;13.57
72236;BMP280;60146;52.498;13.462;2023-10-31T01:58:29;95137.06;;;13.41
72236;BMP280;60146;52.498;13.462;2023-10-31T02:00:55;95113.75;;;13.52
72236;BMP280;60146;52.498;13.462;2023-10-31T02:03:21;95100.59;;;13.43
72236;BMP280;60146;52.498;13.462;2023-10-31T02:05:47;95078.22;;;13.39
72236;BMP280;60146;52.498;13.462;2023-10-31T02:08:12;95029.03;;;13.39
72236;BMP280;60146;52.498;13.462;2023-10-31T02:10:38;94981.19;;;13.44
72236;BMP280;60146;52.498;13.462;2023-10-31T02:13:16;94974.47;;;13.43
72236;BMP280;60146;52.498;13.462;2023-10-31T02:15:43;94953.56;;;13.40
72236;BMP280;60146;52.498;13.462;2023-10-31T02:18:08;94950.94;;;13.31
72236;BMP280;60146;52.498;13.462;2023-10-31T02:20:34;94887.00;;;13.34
72236;BMP280;60146;52.498;13.462;2023-10-31T02:23:00;94872.72;;;13.35
72236;BMP280;60146;52.498;13.462;2023-10-31T02:25:26;94858.69;;;13.29
72236;BMP280;60146;52.498;13.462;2023-10-31T02:27:51;94847.59;;;13.25
72236;BMP280;60146;52.498;13.462;2023-10-31T02:30:17;94825.13;;;13.24
72236;BMP280;60146;52.498;13.462;2023-10-31T02:32:42;94781.50;;;13.27
72236;BMP280;60146;52.498;13.462;2023-10-31T02:35:08;94761.50;;;13.20
72236;BMP280;60146;52.498;13.462;2023-10-31T02:37:34;94734.50;;;13.29
72236;BMP280;60146;52.498;13.462;2023-10-31T02:40:00;94734.81;;;13.13
72236;BMP280;60146;52.498;13.462;2023-10-31T02:42:36;94712.66;;;13.14
72236;BMP280;60146;52.498;13.462;2023-10-31T02:45:05;94695.00;;;13.15
72236;BMP280;60146;52.498;13.462;2023-10-31T02:47:31;94674.84;;;13.12
72236;BMP280;60146;52.498;13.462;2023-10-31T02:50:00;94634.59;;;13.15
72236;BMP280;60146;52.498;13.462;2023-10-31T02:52:26;94610.34;;;13.11
72236;BMP280;60146;52.498;13.462;2023-10-31T02:54:51;94541.78;;;13.17
72236;BMP280;60146;52.498;13.462;2023-10-31T02:57:17;94526.44;;;13.25
72236;BMP280;60146;52.498;13.462;2023-10-31T02:59:42;94531.47;;;13.14
72236;BMP280;60146;52.498;13.462;2023-10-31T03:02:08;94506.06;;;13.11
72236;BMP280;60146;52.498;13.462;2023-10-31T03:04:33;94480.25;;;13.10
72236;BMP280;60146;52.498;13.462;2023-10-31T03:06:58;94460.59;;;13.05
72236;BMP280;60146;52.498;13.462;2023-10-31T03:09:24;94392.56;;;13.16
72236;BMP280;60146;52.498;13.462;2023-10-31T03:11:49;94335.78;;;13.18
72236;BMP280;60146;52.498;13.462;2023-10-31T03:14:15;94331.72;;;13.17
72236;BMP280;60146;52.498;13.462;2023-10-31T03:16:40;94306.81;;;13.13
72236;BMP280;60146;52.498;13.462;2023-10-31T03:19:06;94254.13;;;13.17
72236;BMP280;60146;52.498;13.462;2023-10-31T03:21:32;94211.94;;;13.20
72236;BMP280;60146;52.498;13.462;2023-10-31T03:23:57;94185.94;;;13.22
72236;BMP280;60146;52.498;13.462;2023-10-31T03:26:23;94187.22;;;13.12
72236;BMP280;60146;52.498;13.462;2023-10-31T03:28:48;94180.25;;;13.09
72236;BMP280;60146;52.498;13.462;2023-10-31T03:31:14;94165.66;;;13.08
72236;BMP280;60146;52.498;13.462;2023-10-31T03:33:40;94119.38;;;13.11
72236;BMP280;60146;52.498;13.462;2023-10-31T03:36:07;94099.41;;;13.13
72236;BMP280;60146;52.498;13.462;2023-10-31T03:38:33;94082.00;;;13.16
72236;BMP280;60146;52.498;13.462;2023-10-31T03:40:58;94091.69;;;13.10
72236;BMP280;60146;52.498;13.462;2023-10-31T03:43:24;94092.16;;;13.08
72236;BMP280;60146;52.498;13.462;2023-10-31T03:45:49;94075.69;;;13.08
72236;BMP280;60146;52.498;13.462;2023-10-31T03:48:17;94047.53;;;13.08
72236;BMP280;60146;52.498;13.462;2023-10-31T03:50:43;94045.81;;;13.05
72236;BMP280;60146;52.498;13.462;2023-10-31T03:53:08;94011.84;;;13.16
72236;BMP280;60146;52.498;13.462;2023-10-31T03:55:34;94042.00;;;13.06
72236;BMP280;60146;52.498;13.462;2023-10-31T03:57:59;94013.38;;;13.22
72236;BMP280;60146;52.498;13.462;2023-10-31T04:00:24;94031.31;;;13.24
72236;BMP280;60146;52.498;13.462;2023-10-31T04:02:50;94030.28;;;13.36
72236;BMP280;60146;52.498;13.462;2023-10-31T04:05:15;94074.91;;;13.36
72236;BMP280;60146;52.498;13.462;2023-10-31T04:07:41;94125.91;;;13.29
72236;BMP280;60146;52.498;13.462;2023-10-31T04:10:07;94140.25;;;13.14
72236;BMP280;60146;52.498;13.462;2023-10-31T04:12:33;94089.97;;;13.21
72236;BMP280;60146;52.498;13.462;2023-10-31T04:14:58;94068.78;;;13.24
72236;BMP280;60146;52.498;13.462;2023-10-31T04:17:24;94090.31;;;13.28
72236;BMP280;60146;52.498;13.462;2023-10-31T04:19:49;94126.63;;;13.30
72236;BMP280;60146;52.498;13.462;2023-10-31T04:22:14;94143.47;;;13.37
72236;BMP280;60146;52.498;13.462;2023-10-31T04:24:40;94195.94;;;13.32
72236;BMP280;60146;52.498;13.462;2023-10-31T04:27:06;94197.47;;;13.38
72236;BMP280;60146;52.498;13.462;2023-10-31T04:29:32;94197.75;;;13.40
72236;BMP280;60146;52.498;13.462;2023-10-31T04:31:57;94237.97;;;13.32
72236;BMP280;60146;52.498;13.462;2023-10-31T04:34:23;94158.97;;;13.36
72236;BMP280;60146;52.498;13.462;2023-10-31T04:36:48;94061.56;;;13.53
72236;BMP280;60146;52.498;13.462;2023-10-31T04:39:13;94021.63;;;13.49
72236;BMP280;60146;52.498;13.462;2023-10-31T04:41:39;93603.72;;;13.47
72236;BMP280;60146;52.498;13.462;2023-10-31T04:44:07;93699.19;;;13.39
72236;BMP280;60146;52.498;13.462;2023-10-31T04:46:33;93834.09;;;13.41
72236;BMP280;60146;52.498;13.462;2023-10-31T04:48:59;93898.16;;;13.49
72236;BMP280;60146;52.498;13.462;2023-10-31T04:51:27;93830.03;;;13.40
72236;BMP280;60146;52.498;13.462;2023-10-31T04:53:57;93784.06;;;13.50
72236;BMP280;60146;52.498;13.462;2023-10-31T04:56:23;93878.56;;;13.45
72236;BMP280;60146;52.498;13.462;2023-10-31T04:58:48;93876.88;;;13.47
72236;BMP280;60146;52.498;13.462;2023-10-31T05:01:14;93760.06;;;13.68
72236;BMP280;60146;52.498;13.462;2023-10-31T05:03:39;93880.09;;;13.57
72236;BMP280;60146;52.498;13.462;2023-10-31T05:06:05;93975.59;;;13.54
72236;BMP280;60146;52.498;13.462;2023-10-31T05:08:31;93964.91;;;13.57
72236;BMP280;60146;52.498;13.462;2023-10-31T05:10:57;93990.31;;;13.65
72236;BMP280;60146;52.498;13.462;2023-10-31T05:13:26;93911.22;;;13.63
72236;BMP280;60146;52.498;13.462;2023-10-31T05:15:52;94003.41;;;13.60
72236;BMP280;60146;52.498;13.462;2023-10-31T05:18:17;93961.47;;;13.71
72236;BMP280;60146;52.498;13.462;2023-10-31T05:20:43;94026.38;;;13.65
72236;BMP280;60146;52.498;13.462;2023-10-31T05:23:08;94021.13;;;13.65
72236;BMP280;60146;52.498;13.462;2023-10-31T05:25:34;94010.41;;;13.68
72236;BMP280;60146;52.498;13.462;2023-10-31T05:28:00;94016.00;;;13.56
72236;BMP280;60146;52.498;13.462;2023-10-31T05:30:28;94018.50;;;13.65
72236;BMP280;60146;52.498;13.462;2023-10-31T05:32:54;94011.78;;;13.64
72236;BMP280;60146;52.498;13.462;2023-10-31T05:35:28;93935.97;;;13.76
72236;BMP280;60146;52.498;13.462;2023-10-31T05:37:53;93959.22;;;13.64
72236;BMP280;60146;52.498;13.462;2023-10-31T05:40:21;93883.72;;;13.84
72236;BMP280;60146;52.498;13.462;2023-10-31T05:42:50;93939.44;;;13.63
72236;BMP280;60146;52.498;13.462;2023-10-31T05:45:15;93910.75;;;13.65
72236;BMP280;60146;52.498;13.462;2023-10-31T05:47:41;93818.25;;;13.80
72236;BMP280;60146;52.498;13.462;2023-10-31T05:50:07;93837.06;;;13.74
72236;BMP280;60146;52.498;13.462;2023-10-31T05:52:32;93818.25;;;13.80
72236;BMP280;60146;52.498;13.462;2023-10-31T05:54:58;93822.81;;;13.85
72236;BMP280;60146;52.498;13.462;2023-10-31T05:57:23;93818.50;;;13.82
72236;BMP280;60146;52.498;13.462;2023-10-31T05:59:49;93847.16;;;13.80
72236;BMP280;60146;52.498;13.462;2023-10-31T06:02:14;93818.09;;;13.89
72236;BMP280;60146;52.498;13.462;2023-10-31T06:05:01;93848.06;;;13.77
72236;BMP280;60146;52.498;13.462;2023-10-31T06:07:26;93842.25;;;13.68
72236;BMP280;60146;52.498;13.462;2023-10-31T06:09:51;93796.97;;;13.78
72236;BMP280;60146;52.498;13.462;2023-10-31T06:12:17;93765.00;;;13.85
72236;BMP280;60146;52.498;13.462;2023-10-31T06:14:42;93723.47;;;13.95
72236;BMP280;60146;52.498;13.462;2023-10-31T06:17:24;93771.19;;;13.82
72236;BMP280;60146;52.498;13.462;2023-10-31T06:19:51;93734.72;;;13.95
72236;BMP280;60146;52.498;13.462;2023-10-31T06:22:16;93774.66;;;13.99
72236;BMP280;60146;52.498;13.462;2023-10-31T06:24:42;93785.91;;;13.99
72236;BMP280;60146;52.498;13.462;2023-10-31T06:27:07;93804.75;;;13.98
72236;BMP280;60146;52.498;13.462;2023-10-31T06:29:33;93833.41;;;13.96
72236;BMP280;60146;52.498;13.462;2023-10-31T06:32:13;93797.81;;;13.95
72236;BMP280;60146;52.498;13.462;2023-10-31T06:34:38;93775.84;;;13.98
72236;BMP280;60146;52.498;13.462;2023-10-31T06:37:04;93807.19;;;14.01
72236;BMP280;60146;52.498;13.462;2023-10-31T06:39:29;93784.25;;;14.02
72236;BMP280;60146;52.498;13.462;2023-10-31T06:41:54;93751.16;;;14.20
72236;BMP280;60146;52.498;13.462;2023-10-31T06:44:21;93808.25;;;14.15
72236;BMP280;60146;52.498;13.462;2023-10-31T06:46:46;93794.69;;;14.27
72236;BMP280;60146;52.498;13.462;2023-10-31T06:49:11;93820.78;;;14.30
72236;BMP280;60146;52.498;13.462;2023-10-31T06:51:37;93863.28;;;14.23
72236;BMP280;60146;52.498;13.462;2023-10-31T06:54:02;93860.41;;;14.21
72236;BMP280;60146;52.498;13.462;2023-10-31T06:56:28;93863.50;;;14.20
72236;BMP280;60146;52.498;13.462;2023-10-31T06:58:54;93824.19;;;14.36
72236;BMP280;60146;52.498;13.462;2023-10-31T07:01:19;93860.66;;;14.23
72236;BMP280;60146;52.498;13.462;2023-10-31T07:03:45;93869.91;;;14.14
72236;BMP280;60146;52.498;13.462;2023-10-31T07:06:10;93815.56;;;14.36
72236;BMP280;60146;52.498;13.462;2023-10-31T07:08:35;93844.72;;;14.37
72236;BMP280;60146;52.498;13.462;2023-10-31T07:11:01;93904.69;;;14.28
72236;BMP280;60146;52.498;13.462;2023-10-31T07:13:26;93871.78;;;14.43
72236;BMP280;60146;52.498;13.462;2023-10-31T07:15:51;93920.34;;;14.37
72236;BMP280;60146;52.498;13.462;2023-10-31T07:18:17;93911.06;;;14.47
72236;BMP280;60146;52.498;13.462;2023-10-31T07:20:42;93928.78;;;14.52
72236;BMP280;60146;52.498;13.462;2023-10-31T07:23:07;93986.19;;;14.48
72236;BMP280;60146;52.498;13.462;2023-10-31T07:25:33;93977.75;;;14.44
72236;BMP280;60146;52.498;13.462;2023-10-31T07:27:58;93976.94;;;14.33
72236;BMP280;60146;52.498;13.462;2023-10-31T07:30:24;93901.28;;;14.47
72236;BMP280;60146;52.498;13.462;2023-10-31T07:32:49;93873.47;;;14.41
72236;BMP280;60146;52.498;13.462;2023-10-31T07:35:16;93843.38;;;14.47
72236;BMP280;60146;52.498;13.462;2023-10-31T07:37:41;93860.72;;;14.34
72236;BMP280;60146;52.498;13.462;2023-10-31T07:40:07;94051.59;;;14.15
72236;BMP280;60146;52.498;13.462;2023-10-31T07:42:32;94199.53;;;14.11
72236;BMP280;60146;52.498;13.462;2023-10-31T07:44:58;94429.16;;;14.16
72236;BMP280;60146;52.498;13.462;2023-10-31T07:47:23;94653.97;;;14.07
72236;BMP280;60146;52.498;13.462;2023-10-31T07:49:49;94802.38;;;14.15
72236;BMP280;60146;52.498;13.462;2023-10-31T07:52:15;94902.47;;;14.11
72236;BMP280;60146;52.498;13.462;2023-10-31T07:54:40;94949.38;;;14.04
72236;BMP280;60146;52.498;13.462;2023-10-31T07:57:06;94976.56;;;14.10
72236;BMP280;60146;52.498;13.462;2023-10-31T07:59:35;95056.94;;;14.02
72236;BMP280;60146;52.498;13.462;2023-10-31T08:02:01;95190.16;;;13.96
72236;BMP280;60146;52.498;13.462;2023-10-31T08:04:26;95219.03;;;13.87
72236;BMP280;60146;52.498;13.462;2023-10-31T08:06:53;95287.78;;;13.98
72236;BMP280;60146;52.498;13.462;2023-10-31T08:09:18;95327.97;;;13.98
72236;BMP280;60146;52.498;13.462;2023-10-31T08:11:44;95368.69;;;14.15
72236;BMP280;60146;52.498;13.462;2023-10-31T08:14:09;95416.47;;;14.14
72236;BMP280;60146;52.498;13.462;2023-10-31T08:16:35;95453.19;;;14.17
72236;BMP280;60146;52.498;13.462;2023-10-31T08:19:02;95596.13;;;14.14
72236;BMP280;60146;52.498;13.462;2023-10-31T08:21:27;95545.59;;;14.19
72236;BMP280;60146;52.498;13.462;2023-10-31T08:23:59;95644.84;;;14.18
72236;BMP280;60146;52.498;13.462;2023-10-31T08:26:24;95673.66;;;14.22
72236;BMP280;60146;52.498;13.462;2023-10-31T08:28:50;95655.22;;;14.34
72236;BMP280;60146;52.498;13.462;2023-10-31T08:31:16;95713.88;;;14.22
72236;BMP280;60146;52.498;13.462;2023-10-31T08:33:42;95776.09;;;14.16
72236;BMP280;60146;52.498;13.462;2023-10-31T08:36:08;95746.53;;;14.13
72236;BMP280;60146;52.498;13.462;2023-10-31T08:38:34;95818.13;;;14.20
72236;BMP280;60146;52.498;13.462;2023-10-31T08:40:59;95897.38;;;14.34
72236;BMP280;60146;52.498;13.462;2023-10-31T08:43:24;95972.78;;;14.93
72236;BMP280;60146;52.498;13.462;2023-10-31T08:45:50;96070.13;;;15.48
72236;BMP280;60146;52.498;13.462;2023-10-31T08:48:15;96128.53;;;15.47
72236;BMP280;60146;52.498;13.462;2023-10-31T08:50:46;96130.53;;;15.18
72236;BMP280;60146;52.498;13.462;2023-10-31T08:53:12;96149.66;;;14.94
72236;BMP280;60146;52.498;13.462;2023-10-31T08:55:38;96127.78;;;14.82
72236;BMP280;60146;52.498;13.462;2023-10-31T08:58:03;96057.41;;;14.82
72236;BMP280;60146;52.498;13.462;2023-10-31T09:00:28;96069.59;;;14.64
72236;BMP280;60146;52.498;13.462;2023-10-31T09:02:54;96099.88;;;14.56
72236;BMP280;60146;52.498;13.462;2023-10-31T09:05:19;96150.66;;;14.57
72236;BMP280;60146;52.498;13.462;2023-10-31T09:07:45;96150.00;;;14.53
72236;BMP280;60146;52.498;13.462;2023-10-31T09:10:12;96187.28;;;14.52
72236;BMP280;60146;52.498;13.462;2023-10-31T09:12:41;96246.34;;;14.51
72236;BMP280;60146;52.498;13.462;2023-10-31T09:15:07;96235.41;;;14.52
72236;BMP280;60146;52.498;13.462;2023-10-31T09:17:33;96282.81;;;14.52
72236;BMP280;60146;52.498;13.462;2023-10-31T09:19:58;96292.72;;;14.48
72236;BMP280;60146;52.498;13.462;2023-10-31T09:22:24;96264.38;;;14.83
72236;BMP280;60146;52.498;13.462;2023-10-31T09:24:49;96392.69;;;15.61
72236;BMP280;60146;52.498;13.462;2023-10-31T09:27:15;96671.94;;;16.28
72236;BMP280;60146;52.498;13.462;2023-10-31T09:29:40;96737.44;;;16.64
72236;BMP280;60146;52.498;13.462;2023-10-31T09:32:06;96755.81;;;16.40
72236;BMP280;60146;52.498;13.462;2023-10-31T09:34:31;96655.16;;;16.03
72236;BMP280;60146;52.498;13.462;2023-10-31T09:36:58;96587.41;;;15.50
72236;BMP280;60146;52.498;13.462;2023-10-31T09:39:23;96558.53;;;15.28
72236;BMP280;60146;52.498;13.462;2023-10-31T09:41:49;96567.19;;;14.94
72236;BMP280;60146;52.498;13.462;2023-10-31T09:44:14;96506.28;;;14.88
72236;BMP280;60146;52.498;13.462;2023-10-31T09:46:40;96477.66;;;14.71
72236;BMP280;60146;52.498;13.462;2023-10-31T09:49:06;96486.00;;;14.70
72236;BMP280;60146;52.498;13.462;2023-10-31T09:51:33;96494.81;;;14.60
72236;BMP280;60146;52.498;13.462;2023-10-31T09:53:59;96489.44;;;14.67
72236;BMP280;60146;52.498;13.462;2023-10-31T09:56:24;96504.72;;;14.75
72236;BMP280;60146;52.498;13.462;2023-10-31T09:58:51;96536.50;;;14.84
72236;BMP280;60146;52.498;13.462;2023-10-31T10:01:16;96565.47;;;15.03
72236;BMP280;60146;52.498;13.462;2023-10-31T10:03:42;96605.75;;;15.03
72236;BMP280;60146;52.498;13.462;2023-10-31T10:06:07;96608.38;;;15.03
72236;BMP280;60146;52.498;13.462;2023-10-31T10:08:37;96590.22;;;14.90
72236;BMP280;60146;52.498;13.462;2023-10-31T10:11:06;96543.53;;;14.90
72236;BMP280;60146;52.498;13.462;2023-10-31T10:13:35;96570.81;;;14.99
72236;BMP280;60146;52.498;13.462;2023-10-31T10:16:00;96609.22;;;15.00
72236;BMP280;60146;52.498;13.462;2023-10-31T10:18:27;96589.41;;;14.93
72236;BMP280;60146;52.498;13.462;2023-10-31T10:23:22;96653.72;;;15.14
72236;BMP280;60146;52.498;13.462;2023-10-31T10:25:50;96650.78;;;15.12
72236;BMP280;60146;52.498;13.462;2023-10-31T10:28:15;96645.50;;;15.31
72236;BMP280;60146;52.498;13.462;2023-10-31T10:30:41;96641.75;;;15.48
72236;BMP280;60146;52.498;13.462;2023-10-31T10:33:06;96640.34;;;15.43
72236;BMP280;60146;52.498;13.462;2023-10-31T10:35:32;96720.97;;;15.44
72236;BMP280;60146;52.498;13.462;2023-10-31T10:37:59;96744.88;;;15.72
72236;BMP280;60146;52.498;13.462;2023-10-31T10:40:25;96915.50;;;16.54
72236;BMP280;60146;52.498;13.462;2023-10-31T10:42:54;97064.50;;;16.98
72236;BMP280;60146;52.498;13.462;2023-10-31T10:45:23;97055.16;;;17.28
72236;BMP280;60146;52.498;13.462;2023-10-31T10:47:50;97058.50;;;17.13
72236;BMP280;60146;52.498;13.462;2023-10-31T10:50:18;97048.38;;;16.74
72236;BMP280;60146;52.498;13.462;2023-10-31T10:52:50;97012.88;;;16.56
72236;BMP280;60146;52.498;13.462;2023-10-31T10:55:25;96953.91;;;16.24
72236;BMP280;60146;52.498;13.462;2023-10-31T10:58:05;96958.28;;;16.30
72236;BMP280;60146;52.498;13.462;2023-10-31T11:00:31;96984.13;;;16.23
72236;BMP280;60146;52.498;13.462;2023-10-31T11:02:56;96990.69;;;15.93
72236;BMP280;60146;52.498;13.462;2023-10-31T11:05:23;96987.31;;;15.92
72236;BMP280;60146;52.498;13.462;2023-10-31T11:07:49;96961.44;;;15.84
72236;BMP280;60146;52.498;13.462;2023-10-31T11:10:17;97022.06;;;16.32
72236;BMP280;60146;52.498;13.462;2023-10-31T11:12:43;96980.88;;;15.93
72236;BMP280;60146;52.498;13.462;2023-10-31T11:15:10;96935.28;;;15.71
72236;BMP280;60146;52.498;13.462;2023-10-31T11:17:40;96978.03;;;15.85
72236;BMP280;60146;52.498;13.462;2023-10-31T11:20:09;96978.56;;;15.54
72236;BMP280;60146;52.498;13.462;2023-10-31T11:22:41;96944.66;;;15.52
72236;BMP280;60146;52.498;13.462;2023-10-31T11:25:14;96897.91;;;15.53
72236;BMP280;60146;52.498;13.462;2023-10-31T11:27:39;96840.09;;;15.39
72236;BMP280;60146;52.498;13.462;2023-10-31T11:30:07;96868.88;;;15.53
72236;BMP280;60146;52.498;13.462;2023-10-31T11:32:33;96874.00;;;15.41
72236;BMP280;60146;52.498;13.462;2023-10-31T11:34:59;96833.94;;;15.27
72236;BMP280;60146;52.498;13.462;2023-10-31T11:37:32;96815.19;;;15.21
72236;BMP280;60146;52.498;13.462;2023-10-31T11:40:21;96815.38;;;15.11
72236;BMP280;60146;52.498;13.462;2023-10-31T11:42:52;96764.16;;;15.12
72236;BMP280;60146;52.498;13.462;2023-10-31T11:45:41;96762.56;;;14.95
72236;BMP280;60146;52.498;13.462;2023-10-31T11:48:12;96769.88;;;15.07
72236;BMP280;60146;52.498;13.462;2023-10-31T11:50:37;96741.69;;;15.04
72236;BMP280;60146;52.498;13.462;2023-10-31T11:53:08;96740.81;;;15.11
72236;BMP280;60146;52.498;13.462;2023-10-31T11:55:40;96739.50;;;14.99
72236;BMP280;60146;52.498;13.462;2023-10-31T12:00:37;97091.03;;;16.76
72236;BMP280;60146;52.498;13.462;2023-10-31T12:03:02;97334.25;;;17.43
72236;BMP280;60146;52.498;13.462;2023-10-31T12:05:28;97307.97;;;16.91
72236;BMP280;60146;52.498;13.462;2023-10-31T12:07:54;97344.41;;;16.55
72236;BMP280;60146;52.498;13.462;2023-10-31T12:10:28;97191.81;;;16.14
72236;BMP280;60146;52.498;13.462;2023-10-31T12:12:55;97300.97;;;16.30
72236;BMP280;60146;52.498;13.462;2023-10-31T12:15:21;97307.97;;;16.17
72236;BMP280;60146;52.498;13.462;2023-10-31T12:17:46;97250.03;;;16.04
72236;BMP280;60146;52.498;13.462;2023-10-31T12:20:12;97242.50;;;15.76
72236;BMP280;60146;52.498;13.462;2023-10-31T12:22:37;97154.66;;;15.47
72236;BMP280;60146;52.498;13.462;2023-10-31T12:25:06;97127.06;;;15.29
72236;BMP280;60146;52.498;13.462;2023-10-31T12:27:48;97092.97;;;15.12
72236;BMP280;60146;52.498;13.462;2023-10-31T12:30:19;96983.91;;;14.99
72236;BMP280;60146;52.498;13.462;2023-10-31T12:32:52;97037.56;;;14.86
72236;BMP280;60146;52.498;13.462;2023-10-31T12:35:21;96994.22;;;14.87
72236;BMP280;60146;52.498;13.462;2023-10-31T12:37:47;97054.72;;;15.00
72236;BMP280;60146;52.498;13.462;2023-10-31T12:40:18;97051.06;;;15.17
72236;BMP280;60146;52.498;13.462;2023-10-31T12:42:45;97096.16;;;14.96
72236;BMP280;60146;52.498;13.462;2023-10-31T12:45:14;97118.28;;;15.06
72236;BMP280;60146;52.498;13.462;2023-10-31T12:47:40;97099.00;;;15.12
72236;BMP280;60146;52.498;13.462;2023-10-31T12:50:12;97160.22;;;14.94
72236;BMP280;60146;52.498;13.462;2023-10-31T12:52:51;97217.47;;;14.90
72236;BMP280;60146;52.498;13.462;2023-10-31T12:55:19;97170.03;;;14.90
72236;BMP280;60146;52.498;13.462;2023-10-31T12:57:45;97188.94;;;14.85
72236;BMP280;60146;52.498;13.462;2023-10-31T13:00:12;97228.88;;;14.80
72236;BMP280;60146;52.498;13.462;2023-10-31T13:02:42;97167.03;;;14.91
72236;BMP280;60146;52.498;13.462;2023-10-31T13:05:09;97206.16;;;14.93
72236;BMP280;60146;52.498;13.462;2023-10-31T13:07:34;97156.50;;;14.88
72236;BMP280;60146;52.498;13.462;2023-10-31T13:10:00;97136.22;;;14.81
72236;BMP280;60146;52.498;13.462;2023-10-31T13:12:25;97106.22;;;14.72
72236;BMP280;60146;52.498;13.462;2023-10-31T13:14:52;97069.31;;;14.75
72236;BMP280;60146;52.498;13.462;2023-10-31T13:17:17;97087.44;;;14.70
72236;BMP280;60146;52.498;13.462;2023-10-31T13:19:42;97078.75;;;14.73
72236;BMP280;60146;52.498;13.462;2023-10-31T13:22:08;97063.34;;;14.68
72236;BMP280;60146;52.498;13.462;2023-10-31T13:24:34;97044.28;;;14.57
72236;BMP280;60146;52.498;13.462;2023-10-31T13:26:59;97049.91;;;14.59
72236;BMP280;60146;52.498;13.462;2023-10-31T13:29:27;97043.34;;;14.71
72236;BMP280;60146;52.498;13.462;2023-10-31T13:31:53;97068.91;;;14.77
72236;BMP280;60146;52.498;13.462;2023-10-31T13:34:18;97006.78;;;14.76
72236;BMP280;60146;52.498;13.462;2023-10-31T13:36:43;96997.84;;;14.70
72236;BMP280;60146;52.498;13.462;2023-10-31T13:39:09;97059.56;;;14.73
72236;BMP280;60146;52.498;13.462;2023-10-31T13:41:35;97056.13;;;14.75
72236;BMP280;60146;52.498;13.462;2023-10-31T13:44:00;96999.44;;;14.64
72236;BMP280;60146;52.498;13.462;2023-10-31T13:46:28;96995.75;;;14.58
72236;BMP280;60146;52.498;13.462;2023-10-31T13:48:53;96958.03;;;14.65
72236;BMP280;60146;52.498;13.462;2023-10-31T13:51:19;96966.66;;;14.65
72236;BMP280;60146;52.498;13.462;2023-10-31T13:53:44;96897.84;;;14.63
72236;BMP280;60146;52.498;13.462;2023-10-31T13:56:09;96837.75;;;14.52
72236;BMP280;60146;52.498;13.462;2023-10-31T13:58:35;96798.88;;;14.36